createdAt,value
2017-12-16T00:00:29.554Z,99.99
2017-12-16T00:01:29.519Z,99.99
2017-12-16T00:02:29.535Z,99.99
2017-12-16T00:03:29.551Z,99.99
2017-12-16T00:04:29.566Z,99.99
2017-12-16T00:05:29.582Z,99.99
2017-12-16T00:06:29.597Z,99.99
2017-12-16T00:07:29.613Z,99.99
2017-12-16T00:08:29.628Z,99.99
2017-12-16T00:09:29.644Z,99.99
2017-12-16T00:10:29.658Z,99.99
2017-12-16T00:11:29.681Z,99.99
2017-12-16T00:12:29.689Z,99.99
2017-12-16T00:13:29.707Z,99.99
2017-12-16T00:14:29.721Z,99.99
2017-12-16T00:15:29.736Z,99.99
2017-12-16T00:16:29.752Z,99.99
2017-12-16T00:17:29.766Z,99.99
2017-12-16T00:18:29.781Z,99.99
2017-12-16T00:19:29.798Z,99.99
2017-12-16T00:20:29.814Z,99.99
2017-12-16T00:21:29.827Z,99.99
2017-12-16T00:22:29.844Z,99.99
2017-12-16T00:23:29.859Z,99.99
2017-12-16T00:24:29.873Z,99.99
2017-12-16T00:25:29.888Z,99.99
2017-12-16T00:26:29.905Z,99.99
2017-12-16T00:27:29.920Z,99.99
2017-12-16T00:28:29.935Z,99.99
2017-12-16T00:29:29.951Z,99.99
2017-12-16T00:30:29.966Z,99.99
2017-12-16T00:31:29.982Z,99.99
2017-12-16T00:32:29.995Z,99.99
2017-12-16T00:33:30.020Z,99.99
2017-12-16T00:34:30.026Z,99.99
2017-12-16T00:35:30.049Z,99.99
2017-12-16T00:36:30.057Z,99.99
2017-12-16T00:37:30.072Z,99.99
2017-12-16T00:38:30.139Z,99.99
2017-12-16T00:39:30.103Z,99.99
2017-12-16T00:40:30.118Z,99.99
2017-12-16T00:41:30.134Z,99.99
2017-12-16T00:42:30.150Z,99.99
2017-12-16T00:43:30.167Z,99.99
2017-12-16T00:44:30.181Z,99.99
2017-12-16T00:45:30.196Z,99.99
2017-12-16T00:46:30.211Z,99.99
2017-12-16T00:47:30.226Z,99.99
2017-12-16T00:48:30.241Z,99.99
2017-12-16T00:49:30.257Z,99.99
2017-12-16T00:50:30.273Z,99.99
2017-12-16T00:51:30.288Z,99.99
2017-12-16T00:52:30.311Z,99.99
2017-12-16T00:53:30.320Z,99.99
2017-12-16T00:54:30.335Z,99.99
2017-12-16T00:55:30.350Z,99.99
2017-12-16T00:56:30.366Z,99.99
2017-12-16T00:57:30.381Z,99.99
2017-12-16T00:58:30.396Z,99.99
2017-12-16T00:59:30.413Z,99.99
2017-12-16T01:00:30.426Z,99.99
2017-12-16T01:01:30.443Z,99.99
2017-12-16T01:02:30.457Z,99.99
2017-12-16T01:03:30.474Z,99.99
2017-12-16T01:04:30.489Z,99.99
2017-12-16T01:05:30.507Z,99.99
2017-12-16T01:06:30.521Z,99.99
2017-12-16T01:07:30.536Z,99.99
2017-12-16T01:08:30.552Z,99.99
2017-12-16T01:09:30.566Z,99.99
2017-12-16T01:10:30.580Z,99.99
2017-12-16T01:11:30.596Z,99.99
2017-12-16T01:12:30.612Z,99.99
2017-12-16T01:13:30.628Z,99.99
2017-12-16T01:14:30.643Z,99.99
2017-12-16T01:15:30.658Z,99.99
2017-12-16T01:16:30.674Z,99.99
2017-12-16T01:17:30.689Z,99.99
2017-12-16T01:18:30.705Z,99.99
2017-12-16T01:19:30.720Z,99.99
2017-12-16T01:20:30.735Z,99.99
2017-12-16T01:21:30.751Z,99.99
2017-12-16T01:22:30.766Z,99.99
2017-12-16T01:23:30.782Z,99.99
2017-12-16T01:24:30.797Z,99.99
2017-12-16T01:25:30.812Z,99.99
2017-12-16T01:26:30.827Z,99.99
2017-12-16T01:27:30.843Z,99.99
2017-12-16T01:28:30.859Z,99.99
2017-12-16T01:29:30.874Z,99.99
2017-12-16T01:30:30.890Z,99.99
2017-12-16T01:31:30.906Z,99.99
2017-12-16T01:32:30.920Z,99.99
2017-12-16T01:33:30.935Z,99.99
2017-12-16T01:34:30.951Z,99.99
2017-12-16T01:35:30.967Z,99.99
2017-12-16T01:36:30.981Z,99.99
2017-12-16T01:37:30.998Z,99.99
2017-12-16T01:38:31.013Z,99.99
2017-12-16T01:39:31.029Z,99.99
2017-12-16T01:40:31.043Z,99.99
2017-12-16T01:41:31.058Z,99.99
2017-12-16T01:42:31.074Z,99.99
2017-12-16T01:43:31.091Z,99.99
2017-12-16T01:44:31.105Z,99.99
2017-12-16T01:45:31.121Z,99.99
2017-12-16T01:46:31.136Z,99.99
2017-12-16T01:47:31.153Z,99.99
2017-12-16T01:48:31.168Z,99.99
2017-12-16T01:49:31.185Z,99.99
2017-12-16T01:50:31.200Z,99.99
2017-12-16T01:51:31.216Z,99.99
2017-12-16T01:52:31.230Z,99.99
2017-12-16T01:53:31.245Z,99.99
2017-12-16T01:54:31.261Z,99.99
2017-12-16T01:55:31.277Z,99.99
2017-12-16T01:56:31.292Z,99.99
2017-12-16T01:57:31.308Z,99.99
2017-12-16T01:58:31.323Z,99.99
2017-12-16T01:59:31.338Z,99.99
2017-12-16T02:00:31.353Z,99.99
2017-12-16T02:01:31.370Z,99.99
2017-12-16T02:02:31.384Z,99.99
2017-12-16T02:03:31.399Z,99.99
2017-12-16T02:04:31.415Z,99.99
2017-12-16T02:05:31.437Z,99.99
2017-12-16T02:06:31.446Z,99.99
2017-12-16T02:07:31.461Z,99.99
2017-12-16T02:08:31.477Z,99.99
2017-12-16T02:09:31.492Z,99.99
2017-12-16T02:10:31.508Z,99.99
2017-12-16T02:11:31.522Z,99.99
2017-12-16T02:12:31.538Z,99.99
2017-12-16T02:13:31.555Z,99.99
2017-12-16T02:14:31.571Z,99.99
2017-12-16T02:15:31.585Z,99.99
2017-12-16T02:16:31.600Z,99.99
2017-12-16T02:17:31.615Z,99.99
2017-12-16T02:18:31.630Z,99.99
2017-12-16T02:19:31.712Z,99.99
2017-12-16T02:20:31.664Z,99.99
2017-12-16T02:21:31.677Z,99.99
2017-12-16T02:22:31.699Z,99.99
2017-12-16T02:23:31.722Z,99.99
2017-12-16T02:24:31.723Z,99.99
2017-12-16T02:25:31.740Z,99.99
2017-12-16T02:26:31.754Z,99.99
2017-12-16T02:27:31.771Z,99.99
2017-12-16T02:28:31.785Z,99.99
2017-12-16T02:29:31.800Z,99.99
2017-12-16T02:30:31.818Z,99.99
2017-12-16T02:31:31.834Z,99.99
2017-12-16T02:32:31.847Z,99.99
2017-12-16T02:33:31.862Z,99.99
2017-12-16T02:34:31.880Z,99.99
2017-12-16T02:35:31.894Z,99.99
2017-12-16T02:36:31.958Z,99.99
2017-12-16T02:37:31.928Z,99.99
2017-12-16T02:38:31.941Z,99.99
2017-12-16T02:39:31.957Z,99.99
2017-12-16T02:40:31.979Z,99.99
2017-12-16T02:41:31.988Z,99.99
2017-12-16T02:42:32.003Z,99.99
2017-12-16T02:43:32.018Z,99.99
2017-12-16T02:44:32.034Z,99.99
2017-12-16T02:45:32.050Z,99.99
2017-12-16T02:46:32.065Z,99.99
2017-12-16T02:47:32.081Z,99.99
2017-12-16T02:48:32.095Z,99.99
2017-12-16T02:49:32.111Z,99.99
2017-12-16T02:50:32.128Z,99.99
2017-12-16T02:51:32.144Z,99.99
2017-12-16T02:52:32.159Z,99.99
2017-12-16T02:53:32.174Z,99.99
2017-12-16T02:54:32.239Z,99.99
2017-12-16T02:55:32.206Z,99.99
2017-12-16T02:56:32.219Z,99.99
2017-12-16T02:57:32.235Z,99.99
2017-12-16T02:58:32.251Z,99.99
2017-12-16T02:59:32.268Z,99.99
2017-12-16T03:00:32.285Z,99.99
2017-12-16T03:01:32.298Z,99.99
2017-12-16T03:02:32.313Z,99.99
2017-12-16T03:03:32.330Z,99.99
2017-12-16T03:04:32.344Z,99.99
2017-12-16T03:05:32.360Z,99.99
2017-12-16T03:06:32.394Z,99.99
2017-12-16T03:07:32.391Z,99.99
2017-12-16T03:08:32.406Z,99.99
2017-12-16T03:09:32.422Z,99.99
2017-12-16T03:10:32.437Z,99.99
2017-12-16T03:11:32.454Z,99.99
2017-12-16T03:12:32.467Z,99.99
2017-12-16T03:13:32.484Z,99.99
2017-12-16T03:14:32.549Z,99.99
2017-12-16T03:15:32.515Z,99.99
2017-12-16T03:16:32.530Z,99.99
2017-12-16T03:17:32.545Z,99.99
2017-12-16T03:18:32.560Z,99.99
2017-12-16T03:19:32.576Z,99.99
2017-12-16T03:20:32.597Z,99.99
2017-12-16T03:21:32.606Z,99.99
2017-12-16T03:22:32.622Z,99.99
2017-12-16T03:23:32.639Z,99.99
2017-12-16T03:24:32.652Z,99.99
2017-12-16T03:25:32.667Z,99.99
2017-12-16T03:26:32.683Z,99.99
2017-12-16T03:27:32.699Z,99.99
2017-12-16T03:28:32.714Z,99.99
2017-12-16T03:29:32.730Z,99.99
2017-12-16T03:30:32.746Z,99.99
2017-12-16T03:31:32.760Z,99.99
2017-12-16T03:32:32.775Z,99.99
2017-12-16T03:33:32.789Z,99.99
2017-12-16T03:34:32.805Z,99.99
2017-12-16T03:35:32.822Z,99.99
2017-12-16T03:36:32.835Z,99.99
2017-12-16T03:37:32.852Z,99.99
2017-12-16T03:38:32.867Z,99.99
2017-12-16T03:39:32.883Z,99.99
2017-12-16T03:40:32.949Z,99.99
2017-12-16T03:41:32.911Z,99.99
2017-12-16T03:42:32.928Z,99.99
2017-12-16T03:43:32.944Z,99.99
2017-12-16T03:44:32.958Z,99.99
2017-12-16T03:45:32.974Z,99.99
2017-12-16T03:46:32.990Z,99.99
2017-12-16T03:47:33.005Z,99.99
2017-12-16T03:48:33.018Z,99.99
2017-12-16T03:49:33.034Z,99.99
2017-12-16T03:50:33.050Z,99.99
2017-12-16T03:51:33.064Z,99.99
2017-12-16T03:52:33.080Z,99.99
2017-12-16T03:53:33.095Z,99.99
2017-12-16T03:54:33.112Z,99.99
2017-12-16T03:55:33.125Z,99.99
2017-12-16T03:56:33.140Z,99.99
2017-12-16T03:57:33.164Z,99.99
2017-12-16T03:58:33.171Z,99.99
2017-12-16T03:59:33.187Z,99.99
2017-12-16T04:00:33.201Z,99.99
2017-12-16T04:01:33.218Z,99.99
2017-12-16T04:02:33.234Z,99.99
2017-12-16T04:03:33.248Z,99.99
2017-12-16T04:04:33.262Z,99.99
2017-12-16T04:05:33.278Z,99.99
2017-12-16T04:06:33.294Z,99.99
2017-12-16T04:07:33.310Z,99.99
2017-12-16T04:08:33.324Z,99.99
2017-12-16T04:09:33.339Z,99.99
2017-12-16T04:10:33.356Z,99.99
2017-12-16T04:11:33.371Z,99.99
2017-12-16T04:12:33.385Z,99.99
2017-12-16T04:13:33.405Z,99.99
2017-12-16T04:14:33.416Z,99.99
2017-12-16T04:15:33.482Z,99.99
2017-12-16T04:16:33.446Z,99.99
2017-12-16T04:17:33.461Z,99.99
2017-12-16T04:18:33.477Z,99.99
2017-12-16T04:19:33.493Z,99.99
2017-12-16T04:20:33.506Z,99.99
2017-12-16T04:21:33.523Z,99.99
2017-12-16T04:22:33.539Z,99.99
2017-12-16T04:23:33.554Z,99.99
2017-12-16T04:24:33.568Z,99.99
2017-12-16T04:25:33.583Z,99.99
2017-12-16T04:26:33.599Z,99.99
2017-12-16T04:27:33.614Z,99.99
2017-12-16T04:28:33.630Z,99.99
2017-12-16T04:29:33.644Z,99.99
2017-12-16T04:30:33.660Z,99.99
2017-12-16T04:31:33.677Z,99.99
2017-12-16T04:32:33.691Z,99.99
2017-12-16T04:33:33.706Z,99.99
2017-12-16T04:34:33.722Z,99.99
2017-12-16T04:35:33.741Z,99.99
2017-12-16T04:36:33.753Z,99.99
2017-12-16T04:37:33.767Z,99.99
2017-12-16T04:38:33.783Z,99.99
2017-12-16T04:39:33.799Z,99.99
2017-12-16T04:40:33.814Z,99.99
2017-12-16T04:41:33.830Z,99.99
2017-12-16T04:42:33.845Z,99.99
2017-12-16T04:43:33.861Z,99.99
2017-12-16T04:44:33.876Z,99.99
2017-12-16T04:45:33.891Z,99.99
2017-12-16T04:46:33.906Z,99.99
2017-12-16T04:47:33.921Z,99.99
2017-12-16T04:48:33.937Z,99.99
2017-12-16T04:49:33.953Z,99.99
2017-12-16T04:50:33.968Z,99.99
2017-12-16T04:51:33.983Z,99.99
2017-12-16T04:52:33.999Z,99.99
2017-12-16T04:53:34.013Z,99.99
2017-12-16T04:54:34.029Z,99.99
2017-12-16T04:55:34.045Z,99.99
2017-12-16T04:56:34.059Z,99.99
2017-12-16T04:57:34.077Z,99.99
2017-12-16T04:58:34.090Z,99.99
2017-12-16T04:59:34.106Z,99.99
2017-12-16T05:00:34.122Z,99.99
2017-12-16T05:01:34.138Z,99.99
2017-12-16T05:02:34.154Z,99.99
2017-12-16T05:03:34.169Z,99.99
2017-12-16T05:04:34.184Z,99.99
2017-12-16T05:05:34.198Z,99.99
2017-12-16T05:06:34.216Z,99.99
2017-12-16T05:07:34.230Z,99.99
2017-12-16T05:08:34.245Z,99.99
2017-12-16T05:09:34.260Z,99.99
2017-12-16T05:10:34.275Z,99.99
2017-12-16T05:11:34.292Z,99.99
2017-12-16T05:12:34.305Z,99.99
2017-12-16T05:13:34.321Z,99.99
2017-12-16T05:14:34.336Z,99.99
2017-12-16T05:15:34.353Z,99.99
2017-12-16T05:16:34.367Z,99.99
2017-12-16T05:17:34.383Z,99.99
2017-12-16T05:18:34.399Z,99.99
2017-12-16T05:19:34.414Z,99.99
2017-12-16T05:20:34.428Z,99.99
2017-12-16T05:21:34.444Z,99.99
2017-12-16T05:22:34.460Z,99.99
2017-12-16T05:23:34.478Z,99.99
2017-12-16T05:24:34.490Z,99.99
2017-12-16T05:25:34.505Z,99.99
2017-12-16T05:26:34.520Z,99.99
2017-12-16T05:27:34.540Z,99.99
2017-12-16T05:28:34.550Z,99.99
2017-12-16T05:29:34.566Z,99.99
2017-12-16T05:30:34.582Z,99.99
2017-12-16T05:31:34.598Z,99.99
2017-12-16T05:32:34.612Z,99.99
2017-12-16T05:33:34.627Z,99.99
2017-12-16T05:34:34.642Z,99.99
2017-12-16T05:35:34.657Z,99.99
2017-12-16T05:36:34.673Z,99.99
2017-12-16T05:37:34.688Z,99.99
2017-12-16T05:38:34.702Z,99.99
2017-12-16T05:39:34.719Z,99.99
2017-12-16T05:40:34.733Z,99.99
2017-12-16T05:41:34.748Z,99.99
2017-12-16T05:42:34.764Z,99.99
2017-12-16T05:43:34.778Z,99.99
2017-12-16T05:44:34.798Z,99.99
2017-12-16T05:45:34.809Z,99.99
2017-12-16T05:46:34.824Z,99.99
2017-12-16T05:47:34.839Z,99.99
2017-12-16T05:48:34.854Z,99.99
2017-12-16T05:49:34.868Z,99.99
2017-12-16T05:50:34.891Z,99.99
2017-12-16T05:51:34.951Z,99.99
2017-12-16T05:52:34.914Z,99.99
2017-12-16T05:53:34.930Z,99.99
2017-12-16T05:54:34.945Z,99.99
2017-12-16T05:55:34.960Z,99.99
2017-12-16T05:56:34.974Z,99.99
2017-12-16T05:57:34.990Z,99.99
2017-12-16T05:58:35.006Z,99.99
2017-12-16T05:59:35.022Z,99.99
2017-12-16T06:00:35.035Z,99.99
2017-12-16T06:01:35.052Z,99.99
2017-12-16T06:02:35.116Z,99.99
2017-12-16T06:03:35.082Z,99.99
2017-12-16T06:04:35.097Z,99.99
2017-12-16T06:05:35.112Z,99.99
2017-12-16T06:06:35.127Z,99.99
2017-12-16T06:07:35.147Z,99.99
2017-12-16T06:08:35.157Z,99.99
2017-12-16T06:09:35.172Z,99.99
2017-12-16T06:10:35.189Z,99.99
2017-12-16T06:11:35.205Z,99.99
2017-12-16T06:12:35.220Z,99.99
2017-12-16T06:13:35.238Z,99.99
2017-12-16T06:14:35.299Z,99.99
2017-12-16T06:15:35.266Z,99.99
2017-12-16T06:16:35.279Z,99.99
2017-12-16T06:17:35.295Z,99.99
2017-12-16T06:18:35.312Z,99.99
2017-12-16T06:19:35.377Z,99.99
2017-12-16T06:20:35.340Z,99.99
2017-12-16T06:21:35.356Z,99.99
2017-12-16T06:22:35.372Z,99.99
2017-12-16T06:23:35.386Z,99.99
2017-12-16T06:24:35.401Z,99.99
2017-12-16T06:25:35.417Z,99.99
2017-12-16T06:26:35.432Z,99.99
2017-12-16T06:27:35.449Z,99.99
2017-12-16T06:28:35.463Z,99.99
2017-12-16T06:29:35.528Z,99.99
2017-12-16T06:30:35.493Z,99.99
2017-12-16T06:31:35.508Z,99.99
2017-12-16T06:32:35.522Z,99.99
2017-12-16T06:33:35.539Z,99.99
2017-12-16T06:34:35.705Z,99.99
2017-12-16T06:35:35.569Z,99.99
2017-12-16T06:36:35.584Z,99.99
2017-12-16T06:37:35.599Z,99.99
2017-12-16T06:38:35.615Z,99.99
2017-12-16T06:39:35.629Z,99.99
2017-12-16T06:40:35.645Z,99.99
2017-12-16T06:41:35.660Z,99.99
2017-12-16T06:42:35.675Z,99.99
2017-12-16T06:43:35.691Z,99.99
2017-12-16T06:44:35.705Z,99.99
2017-12-16T06:45:35.722Z,99.99
2017-12-16T06:46:35.736Z,99.99
2017-12-16T06:47:35.754Z,99.99
2017-12-16T06:48:35.767Z,99.99
2017-12-16T06:49:35.783Z,99.99
2017-12-16T06:50:35.796Z,99.99
2017-12-16T06:51:35.812Z,99.99
2017-12-16T06:52:35.830Z,99.99
2017-12-16T06:53:35.842Z,99.99
2017-12-16T06:54:35.857Z,99.99
2017-12-16T06:55:35.931Z,99.99
2017-12-16T06:56:35.888Z,99.99
2017-12-16T06:57:35.902Z,99.99
2017-12-16T06:58:35.918Z,99.99
2017-12-16T06:59:35.939Z,99.99
2017-12-16T07:00:35.948Z,99.99
2017-12-16T07:01:35.962Z,99.99
2017-12-16T07:02:35.978Z,99.99
2017-12-16T07:03:35.993Z,99.99
2017-12-16T07:04:36.007Z,99.99
2017-12-16T07:05:36.022Z,99.99
2017-12-16T07:06:36.036Z,99.99
2017-12-16T07:07:36.052Z,99.99
2017-12-16T07:08:36.066Z,99.99
2017-12-16T07:09:36.081Z,99.99
2017-12-16T07:10:36.099Z,99.99
2017-12-16T07:11:36.111Z,99.99
2017-12-16T07:12:36.126Z,99.99
2017-12-16T07:13:36.140Z,99.99
2017-12-16T07:14:36.155Z,99.99
2017-12-16T07:15:36.172Z,99.99
2017-12-16T07:16:36.186Z,99.99
2017-12-16T07:17:36.250Z,99.99
2017-12-16T07:18:36.216Z,99.99
2017-12-16T07:19:36.231Z,99.99
2017-12-16T07:20:36.246Z,99.99
2017-12-16T07:21:36.260Z,99.99
2017-12-16T07:22:36.274Z,99.99
2017-12-16T07:23:36.290Z,99.99
2017-12-16T07:24:36.363Z,99.99
2017-12-16T07:25:36.318Z,99.99
2017-12-16T07:26:36.338Z,99.99
2017-12-16T07:27:36.351Z,99.99
2017-12-16T07:28:36.363Z,99.99
2017-12-16T07:29:36.382Z,99.99
2017-12-16T07:30:36.394Z,99.99
2017-12-16T07:31:36.409Z,99.99
2017-12-16T07:32:36.423Z,99.99
2017-12-16T07:33:36.438Z,99.99
2017-12-16T07:34:36.454Z,99.99
2017-12-16T07:35:36.468Z,99.99
2017-12-16T07:36:36.483Z,99.99
2017-12-16T07:37:36.499Z,99.99
2017-12-16T07:38:36.513Z,99.99
2017-12-16T07:39:36.530Z,99.99
2017-12-16T07:40:36.542Z,99.99
2017-12-16T07:41:36.558Z,99.99
2017-12-16T07:42:36.573Z,99.99
2017-12-16T07:43:36.588Z,99.99
2017-12-16T07:44:36.607Z,99.99
2017-12-16T07:45:36.618Z,99.99
2017-12-16T07:46:36.633Z,99.99
2017-12-16T07:47:36.647Z,99.99
2017-12-16T07:48:36.661Z,99.99
2017-12-16T07:49:36.676Z,99.99
2017-12-16T07:50:36.693Z,99.99
2017-12-16T07:51:36.708Z,99.99
2017-12-16T07:52:36.720Z,99.99
2017-12-16T07:53:36.736Z,99.99
2017-12-16T07:54:36.752Z,99.99
2017-12-16T07:55:36.768Z,99.99
2017-12-16T07:56:36.780Z,99.99
2017-12-16T07:57:36.796Z,99.99
2017-12-16T07:58:36.812Z,99.99
2017-12-16T07:59:36.826Z,99.99
2017-12-16T08:00:36.840Z,99.99
2017-12-16T08:01:36.855Z,99.99
2017-12-16T08:02:36.870Z,99.99
2017-12-16T08:03:36.889Z,99.99
2017-12-16T08:04:36.901Z,99.99
2017-12-16T08:05:36.915Z,99.99
2017-12-16T08:06:36.931Z,99.99
2017-12-16T08:07:36.945Z,99.99
2017-12-16T08:08:36.960Z,99.99
2017-12-16T08:09:36.975Z,99.99
2017-12-16T08:10:36.991Z,99.99
2017-12-16T08:11:37.006Z,99.99
2017-12-16T08:12:37.021Z,99.99
2017-12-16T08:13:37.035Z,99.99
2017-12-16T08:14:37.050Z,99.99
2017-12-16T08:15:37.066Z,99.99
2017-12-16T08:16:37.081Z,99.99
2017-12-16T08:17:37.095Z,99.99
2017-12-16T08:18:37.110Z,99.99
2017-12-16T08:19:37.126Z,99.99
2017-12-16T08:20:37.140Z,99.99
2017-12-16T08:21:37.156Z,99.99
2017-12-16T08:22:37.171Z,99.99
2017-12-16T08:23:37.186Z,99.99
2017-12-16T08:24:37.200Z,99.99
2017-12-16T08:25:37.217Z,99.99
2017-12-16T08:26:37.231Z,99.99
2017-12-16T08:27:37.246Z,99.99
2017-12-16T08:28:37.260Z,99.99
2017-12-16T08:29:37.276Z,99.99
2017-12-16T08:30:37.292Z,99.99
2017-12-16T08:31:37.306Z,99.99
2017-12-16T08:32:37.322Z,99.99
2017-12-16T08:33:37.360Z,99.99
2017-12-16T08:34:37.352Z,99.99
2017-12-16T08:35:37.368Z,99.99
2017-12-16T08:36:37.382Z,99.99
2017-12-16T08:37:37.396Z,99.99
2017-12-16T08:38:37.413Z,99.99
2017-12-16T08:39:37.528Z,99.99
2017-12-16T08:40:37.442Z,99.99
2017-12-16T08:41:37.457Z,99.99
2017-12-16T08:42:37.472Z,99.99
2017-12-16T08:43:37.489Z,99.99
2017-12-16T08:44:37.503Z,99.99
2017-12-16T08:45:37.519Z,99.99
2017-12-16T08:46:37.535Z,99.99
2017-12-16T08:47:37.549Z,99.99
2017-12-16T08:48:37.567Z,99.99
2017-12-16T08:49:37.579Z,99.99
2017-12-16T08:50:37.594Z,99.99
2017-12-16T08:51:37.611Z,99.99
2017-12-16T08:52:37.626Z,99.99
2017-12-16T08:53:37.640Z,99.99
2017-12-16T08:54:37.656Z,99.99
2017-12-16T08:55:37.671Z,99.99
2017-12-16T08:56:37.686Z,99.99
2017-12-16T08:57:37.702Z,99.99
2017-12-16T08:58:37.718Z,99.99
2017-12-16T08:59:37.732Z,99.99
2017-12-16T09:00:37.747Z,99.99
2017-12-16T09:01:37.762Z,99.99
2017-12-16T09:02:37.779Z,99.99
2017-12-16T09:03:37.794Z,99.99
2017-12-16T09:04:37.809Z,99.99
2017-12-16T09:05:37.851Z,99.99
2017-12-16T09:06:37.838Z,99.99
2017-12-16T09:07:37.855Z,99.99
2017-12-16T09:08:37.869Z,99.99
2017-12-16T09:09:37.884Z,99.99
2017-12-16T09:10:37.902Z,99.99
2017-12-16T09:11:37.918Z,99.99
2017-12-16T09:12:37.934Z,99.99
2017-12-16T09:13:37.996Z,99.99
2017-12-16T09:14:37.962Z,99.99
2017-12-16T09:15:37.977Z,99.99
2017-12-16T09:16:37.991Z,99.99
2017-12-16T09:17:38.007Z,99.99
2017-12-16T09:18:38.023Z,99.99
2017-12-16T09:19:38.040Z,99.99
2017-12-16T09:20:38.056Z,99.99
2017-12-16T09:21:38.070Z,99.99
2017-12-16T09:22:38.085Z,99.99
2017-12-16T09:23:38.100Z,99.99
2017-12-16T09:24:38.116Z,99.99
2017-12-16T09:25:38.131Z,99.99
2017-12-16T09:26:38.146Z,99.99
2017-12-16T09:27:38.167Z,99.99
2017-12-16T09:28:38.229Z,99.99
2017-12-16T09:29:38.193Z,99.99
2017-12-16T09:30:38.213Z,99.99
2017-12-16T09:31:38.227Z,99.99
2017-12-16T09:32:38.240Z,99.99
2017-12-16T09:33:38.255Z,99.99
2017-12-16T09:34:38.271Z,99.99
2017-12-16T09:35:38.287Z,99.99
2017-12-16T09:36:38.303Z,99.99
2017-12-16T09:37:38.317Z,99.86
2017-12-16T09:38:38.384Z,99.39
2017-12-16T09:39:38.350Z,99.99
2017-12-16T09:40:38.364Z,99.82
2017-12-16T09:41:38.380Z,99.34
2017-12-16T09:42:38.394Z,99.34
2017-12-16T09:43:38.411Z,99.15
2017-12-16T09:44:38.426Z,99.44
2017-12-16T09:45:38.442Z,99.34
2017-12-16T09:46:38.459Z,99.44
2017-12-16T09:47:38.474Z,98.77
2017-12-16T09:48:38.490Z,98.39
2017-12-16T09:49:38.503Z,98.21
2017-12-16T09:50:38.522Z,97.73
2017-12-16T09:51:38.687Z,96.88
2017-12-16T09:52:38.553Z,96.69
2017-12-16T09:53:38.569Z,96.88
2017-12-16T09:54:38.585Z,96.59
2017-12-16T09:55:38.601Z,96.69
2017-12-16T09:56:38.614Z,96.08
2017-12-16T09:57:38.633Z,95.88
2017-12-16T09:58:38.649Z,95.03
2017-12-16T09:59:38.666Z,95.12
2017-12-16T10:00:38.682Z,95.41
2017-12-16T10:01:38.697Z,95.36
2017-12-16T10:02:38.718Z,95.93
2017-12-16T10:03:38.731Z,96.88
2017-12-16T10:04:38.745Z,96.78
2017-12-16T10:05:38.763Z,96.78
2017-12-16T10:06:38.779Z,96.69
2017-12-16T10:07:38.796Z,96.69
2017-12-16T10:08:38.812Z,96.78
2017-12-16T10:09:38.828Z,96.59
2017-12-16T10:10:38.844Z,97.26
2017-12-16T10:11:38.910Z,97.26
2017-12-16T10:12:38.878Z,97.64
2017-12-16T10:13:38.894Z,97.45
2017-12-16T10:14:38.909Z,97.16
2017-12-16T10:15:38.924Z,97.64
2017-12-16T10:16:38.941Z,97.16
2017-12-16T10:17:38.957Z,97.35
2017-12-16T10:18:38.973Z,97.26
2017-12-16T10:19:38.991Z,97.83
2017-12-16T10:20:39.006Z,97.73
2017-12-16T10:21:39.171Z,97.83
2017-12-16T10:22:39.036Z,97.64
2017-12-16T10:23:39.053Z,97.64
2017-12-16T10:24:39.068Z,97.54
2017-12-16T10:25:39.135Z,97.92
2017-12-16T10:26:39.101Z,97.64
2017-12-16T10:27:39.117Z,97.73
2017-12-16T10:28:39.139Z,97.54
2017-12-16T10:29:39.148Z,97.26
2017-12-16T10:30:39.164Z,96.78
2017-12-16T10:31:39.181Z,96.41
2017-12-16T10:32:39.196Z,96.08
2017-12-16T10:33:39.212Z,96.73
2017-12-16T10:34:39.291Z,96.12
2017-12-16T10:35:39.246Z,96.50
2017-12-16T10:36:39.261Z,96.97
2017-12-16T10:37:39.277Z,96.50
2017-12-16T10:38:39.294Z,96.41
2017-12-16T10:39:39.310Z,96.88
2017-12-16T10:40:39.325Z,97.54
2017-12-16T10:41:39.393Z,97.31
2017-12-16T10:42:39.358Z,96.92
2017-12-16T10:43:39.374Z,95.79
2017-12-16T10:44:39.389Z,96.26
2017-12-16T10:45:39.406Z,96.17
2017-12-16T10:46:39.422Z,96.64
2017-12-16T10:47:39.438Z,96.73
2017-12-16T10:48:39.456Z,96.83
2017-12-16T10:49:39.475Z,95.88
2017-12-16T10:50:39.488Z,95.41
2017-12-16T10:51:39.504Z,95.31
2017-12-16T10:52:39.520Z,95.50
2017-12-16T10:53:39.537Z,95.79
2017-12-16T10:54:39.553Z,95.79
2017-12-16T10:55:39.569Z,95.69
2017-12-16T10:56:39.585Z,95.69
2017-12-16T10:57:39.607Z,95.79
2017-12-16T10:58:39.618Z,95.41
2017-12-16T10:59:39.635Z,95.60
2017-12-16T11:00:39.650Z,95.41
2017-12-16T11:01:39.666Z,96.17
2017-12-16T11:02:39.684Z,95.88
2017-12-16T11:03:39.700Z,95.69
2017-12-16T11:04:39.715Z,95.79
2017-12-16T11:05:39.731Z,95.41
2017-12-16T11:06:39.749Z,95.31
2017-12-16T11:07:39.765Z,95.12
2017-12-16T11:08:39.781Z,95.31
2017-12-16T11:09:39.799Z,95.31
2017-12-16T11:10:39.817Z,95.31
2017-12-16T11:11:39.830Z,95.69
2017-12-16T11:12:39.846Z,95.50
2017-12-16T11:13:39.863Z,95.41
2017-12-16T11:14:39.879Z,95.88
2017-12-16T11:15:39.896Z,95.69
2017-12-16T11:16:39.913Z,96.08
2017-12-16T11:17:39.929Z,95.31
2017-12-16T11:18:39.947Z,94.46
2017-12-16T11:19:39.964Z,94.65
2017-12-16T11:20:39.979Z,93.61
2017-12-16T11:21:39.994Z,94.18
2017-12-16T11:22:40.013Z,93.46
2017-12-16T11:23:40.029Z,93.32
2017-12-16T11:24:40.044Z,93.32
2017-12-16T11:25:40.061Z,93.84
2017-12-16T11:26:40.077Z,94.51
2017-12-16T11:27:40.095Z,94.08
2017-12-16T11:28:40.112Z,93.41
2017-12-16T11:29:40.129Z,93.80
2017-12-16T11:30:40.146Z,94.18
2017-12-16T11:31:40.163Z,94.37
2017-12-16T11:32:40.178Z,93.80
2017-12-16T11:33:40.194Z,93.41
2017-12-16T11:34:40.212Z,93.32
2017-12-16T11:35:40.230Z,92.94
2017-12-16T11:36:40.245Z,92.61
2017-12-16T11:37:40.261Z,93.18
2017-12-16T11:38:40.330Z,92.47
2017-12-16T11:39:40.295Z,91.66
2017-12-16T11:40:40.311Z,92.18
2017-12-16T11:41:40.327Z,91.80
2017-12-16T11:42:40.344Z,91.61
2017-12-16T11:43:40.362Z,91.42
2017-12-16T11:44:40.378Z,92.28
2017-12-16T11:45:40.396Z,92.28
2017-12-16T11:46:40.412Z,92.28
2017-12-16T11:47:40.429Z,92.38
2017-12-16T11:48:40.445Z,92.42
2017-12-16T11:49:40.461Z,92.47
2017-12-16T11:50:40.527Z,92.38
2017-12-16T11:51:40.494Z,92.38
2017-12-16T11:52:40.510Z,92.14
2017-12-16T11:53:40.526Z,92.38
2017-12-16T11:54:40.545Z,92.23
2017-12-16T11:55:40.611Z,91.66
2017-12-16T11:56:40.728Z,91.75
2017-12-16T11:57:40.593Z,91.28
2017-12-16T11:58:40.609Z,91.09
2017-12-16T11:59:40.626Z,91.19
2017-12-16T12:00:40.642Z,90.43
2017-12-16T12:01:40.659Z,90.62
2017-12-16T12:02:40.675Z,90.81
2017-12-16T12:03:40.693Z,91.00
2017-12-16T12:04:40.709Z,90.14
2017-12-16T12:05:40.725Z,90.33
2017-12-16T12:06:40.794Z,90.52
2017-12-16T12:07:40.758Z,89.86
2017-12-16T12:08:40.774Z,90.14
2017-12-16T12:09:40.792Z,90.00
2017-12-16T12:10:40.808Z,90.24
2017-12-16T12:11:40.889Z,90.43
2017-12-16T12:12:40.840Z,90.48
2017-12-16T12:13:40.859Z,89.95
2017-12-16T12:14:40.875Z,90.90
2017-12-16T12:15:40.892Z,91.05
2017-12-16T12:16:40.908Z,90.81
2017-12-16T12:17:40.925Z,90.76
2017-12-16T12:18:40.942Z,90.48
2017-12-16T12:19:40.959Z,90.38
2017-12-16T12:20:40.973Z,91.14
2017-12-16T12:21:40.989Z,91.14
2017-12-16T12:22:41.056Z,90.95
2017-12-16T12:23:41.023Z,91.14
2017-12-16T12:24:41.044Z,91.05
2017-12-16T12:25:41.056Z,91.52
2017-12-16T12:26:41.073Z,90.95
2017-12-16T12:27:41.089Z,91.33
2017-12-16T12:28:41.110Z,91.61
2017-12-16T12:29:41.120Z,91.05
2017-12-16T12:30:41.138Z,91.00
2017-12-16T12:31:41.154Z,91.28
2017-12-16T12:32:41.168Z,90.57
2017-12-16T12:33:41.186Z,90.57
2017-12-16T12:34:41.203Z,90.67
2017-12-16T12:35:41.220Z,90.71
2017-12-16T12:36:41.234Z,90.24
2017-12-16T12:37:41.250Z,90.00
2017-12-16T12:38:41.267Z,90.43
2017-12-16T12:39:41.284Z,90.33
2017-12-16T12:40:41.300Z,90.62
2017-12-16T12:41:41.316Z,90.90
2017-12-16T12:42:41.332Z,90.43
2017-12-16T12:43:41.349Z,91.19
2017-12-16T12:44:41.365Z,90.62
2017-12-16T12:45:41.381Z,90.52
2017-12-16T12:46:41.397Z,90.67
2017-12-16T12:47:41.415Z,90.95
2017-12-16T12:48:41.430Z,90.67
2017-12-16T12:49:41.446Z,91.71
2017-12-16T12:50:41.515Z,90.81
2017-12-16T12:51:41.479Z,90.86
2017-12-16T12:52:41.496Z,90.95